Time;durP1;ratioP1;P1;durP2;ratioP2;P2;SDS_P1;SDS_P2;PMS_P1;PMS_P2;Temp;Humidity;BMP_temperature;BMP_pressure;BME280_temperature;BME280_humidity;BME280_pressure;Samples;Min_cycle;Max_cycle;Signal;HPM_P1;HPM_P2
2022/11/06 00:01:13;;;;;;;7.22;6.72;;;;;;;;;;4994272;28;20538;-60
2022/11/06 00:03:39;;;;;;;7.70;7.20;;;;;;;;;;4993429;28;20033;-59
2022/11/06 00:08:53;;;;;;;9.05;8.13;;;;;;;;;;4994209;28;20106;-59
2022/11/06 00:11:18;;;;;;;7.75;7.25;;;;;;;;;;4990947;28;20136;-59
2022/11/06 00:13:46;;;;;;;9.32;8.48;;;;;;;;;;4993626;28;20033;-59
2022/11/06 00:16:13;;;;;;;7.93;7.32;;;;;;;;;;4993260;28;20506;-59
2022/11/06 00:18:40;;;;;;;8.40;7.80;;;;;;;;;;4994054;28;20064;-59
2022/11/06 00:21:11;;;;;;;9.73;8.93;;;;;;;;;;4998401;28;20053;-59
2022/11/06 00:23:36;;;;;;;;;;;;;;;;;;4993901;28;20032;-59
2022/11/06 00:26:07;;;;;;;7.13;6.63;;;;;;;;;;4995473;28;19917;-59
2022/11/06 00:28:32;;;;;;;8.27;7.60;;;;;;;;;;4992647;28;20030;-60
2022/11/06 00:31:06;;;;;;;7.70;7.15;;;;;;;;;;4995545;28;20913;-59
2022/11/06 00:33:32;;;;;;;9.25;7.97;;;;;;;;;;4992912;28;20096;-59
2022/11/06 00:35:58;;;;;;;7.95;7.35;;;;;;;;;;4990912;28;20447;-59
2022/11/06 00:38:23;;;;;;;7.68;7.18;;;;;;;;;;4990824;28;20034;-59
2022/11/06 00:40:49;;;;;;;8.07;7.47;;;;;;;;;;4995078;28;20650;-59
2022/11/06 00:43:14;;;;;;;8.57;7.97;;;;;;;;;;4991137;28;20129;-59
2022/11/06 00:45:40;;;;;;;7.75;7.25;;;;;;;;;;4991260;28;20037;-58
2022/11/06 00:48:06;;;;;;;8.30;7.75;;;;;;;;;;4992061;28;20045;-59
2022/11/06 00:50:32;;;;;;;7.93;7.38;;;;;;;;;;4990995;28;20496;-59
2022/11/06 00:52:57;;;;;;;8.27;7.68;;;;;;;;;;4991346;28;20038;-59
2022/11/06 00:55:23;;;;;;;8.38;7.78;;;;;;;;;;4990750;28;20506;-60
2022/11/06 00:57:48;;;;;;;9.38;8.50;;;;;;;;;;4992673;28;20042;-60
2022/11/06 01:00:16;;;;;;;8.13;7.63;;;;;;;;;;4993422;28;20353;-59
2022/11/06 01:02:44;;;;;;;8.23;7.63;;;;;;;;;;4993427;28;20080;-59
2022/11/06 01:05:09;;;;;;;8.18;7.55;;;;;;;;;;4994640;28;20042;-59
2022/11/06 01:07:35;;;;;;;9.20;8.50;;;;;;;;;;4997097;28;20053;-60
2022/11/06 01:10:00;;;;;;;9.55;8.75;;;;;;;;;;4997448;28;20233;-60
2022/11/06 01:12:25;;;;;;;8.90;8.25;;;;;;;;;;4992321;28;20100;-59
2022/11/06 01:14:51;;;;;;;7.93;7.22;;;;;;;;;;4996782;28;20410;-59
2022/11/06 01:17:16;;;;;;;8.90;8.27;;;;;;;;;;4995765;28;20208;-59
2022/11/06 01:19:41;;;;;;;9.05;8.40;;;;;;;;;;4995551;28;20038;-59
2022/11/06 01:22:07;;;;;;;9.02;8.43;;;;;;;;;;5002223;28;20038;-60
2022/11/06 01:24:33;;;;;;;8.48;7.85;;;;;;;;;;4997036;28;20498;-60
2022/11/06 01:26:59;;;;;;;8.55;7.88;;;;;;;;;;4994284;28;20034;-60
2022/11/06 01:29:24;;;;;;;8.27;7.72;;;;;;;;;;4998836;28;20037;-59
2022/11/06 01:31:50;;;;;;;8.45;7.85;;;;;;;;;;4993391;28;20042;-59
2022/11/06 01:34:16;;;;;;;9.07;8.48;;;;;;;;;;4999231;28;20041;-59
2022/11/06 01:36:41;;;;;;;10.23;9.35;;;;;;;;;;4996329;28;20045;-59
2022/11/06 01:39:09;;;;;;;9.40;8.73;;;;;;;;;;4995388;28;20081;-60
2022/11/06 01:41:44;;;;;;;8.55;7.95;;;;;;;;;;4996896;28;20053;-59
2022/11/06 01:44:34;;;;;;;8.80;8.20;;;;;;;;;;4996560;28;20046;-60
2022/11/06 01:47:02;;;;;;;10.65;9.65;;;;;;;;;;4993834;28;20082;-60
2022/11/06 01:49:33;;;;;;;10.05;9.35;;;;;;;;;;4992359;28;20037;-60
2022/11/06 01:52:04;;;;;;;9.10;8.40;;;;;;;;;;4994193;28;20523;-60
2022/11/06 01:54:33;;;;;;;8.57;7.97;;;;;;;;;;4992881;28;20061;-60
2022/11/06 01:57:00;;;;;;;8.15;7.55;;;;;;;;;;4995290;28;20033;-60
2022/11/06 01:59:28;;;;;;;8.85;8.15;;;;;;;;;;4989750;28;20117;-59
2022/11/06 02:01:54;;;;;;;8.82;8.23;;;;;;;;;;4994408;28;20084;-59
2022/11/06 02:04:30;;;;;;;8.43;7.82;;;;;;;;;;4995950;28;20264;-59
2022/11/06 02:06:58;;;;;;;9.02;8.32;;;;;;;;;;4993634;28;20038;-60
2022/11/06 02:09:24;;;;;;;8.27;7.65;;;;;;;;;;4997990;28;20133;-60
2022/11/06 02:11:57;;;;;;;9.38;8.68;;;;;;;;;;4993976;28;20571;-60
2022/11/06 02:14:49;;;;;;;9.55;8.85;;;;;;;;;;4993954;28;20153;-60
2022/11/06 02:17:27;;;;;;;7.88;7.38;;;;;;;;;;4997255;28;20034;-60
2022/11/06 02:20:04;;;;;;;10.10;9.30;;;;;;;;;;4994896;28;20413;-60
2022/11/06 02:22:48;;;;;;;8.77;8.18;;;;;;;;;;4992368;28;20030;-60
2022/11/06 02:25:35;;;;;;;8.48;7.88;;;;;;;;;;4991035;28;20616;-60
2022/11/06 02:28:08;;;;;;;9.10;8.45;;;;;;;;;;4995907;28;20034;-60
2022/11/06 02:30:40;;;;;;;9.40;8.60;;;;;;;;;;4995213;28;20411;-60
2022/11/06 02:33:11;;;;;;;8.43;7.85;;;;;;;;;;4996034;28;20034;-60
2022/11/06 02:35:55;;;;;;;9.63;8.93;;;;;;;;;;4994760;28;20096;-60
2022/11/06 02:38:36;;;;;;;9.35;8.65;;;;;;;;;;4992871;28;20104;-60
2022/11/06 02:41:05;;;;;;;9.60;8.90;;;;;;;;;;4993593;28;20045;-60
2022/11/06 02:43:37;;;;;;;9.80;8.93;;;;;;;;;;4992646;28;20038;-60
2022/11/06 02:46:11;;;;;;;10.85;10.05;;;;;;;;;;4994271;28;20460;-60
2022/11/06 02:48:47;;;;;;;9.10;8.50;;;;;;;;;;4991147;28;20152;-60
2022/11/06 02:51:17;;;;;;;11.50;8.95;;;;;;;;;;4992742;28;20550;-60
2022/11/06 02:53:45;;;;;;;8.90;8.23;;;;;;;;;;4992866;28;20612;-60
2022/11/06 02:56:21;;;;;;;8.52;7.93;;;;;;;;;;4996402;28;20053;-61
2022/11/06 02:59:07;;;;;;;9.38;8.68;;;;;;;;;;4997908;28;20038;-60
2022/11/06 03:01:39;;;;;;;9.98;9.02;;;;;;;;;;4994330;28;20108;-60
2022/11/06 03:04:21;;;;;;;9.18;8.45;;;;;;;;;;4994714;28;20045;-60
2022/11/06 03:07:02;;;;;;;8.55;7.95;;;;;;;;;;5000319;28;20052;-59
2022/11/06 03:09:30;;;;;;;;;;;;;;;;;;4990877;28;20646;-60
2022/11/06 03:12:05;;;;;;;8.80;8.20;;;;;;;;;;4995544;28;20482;-60
2022/11/06 03:14:52;;;;;;;8.90;8.25;;;;;;;;;;4994565;28;20053;-60
2022/11/06 03:17:22;;;;;;;10.10;9.35;;;;;;;;;;4991104;28;20121;-59
2022/11/06 03:19:58;;;;;;;8.43;7.88;;;;;;;;;;4993037;28;20036;-60
2022/11/06 03:22:31;;;;;;;9.50;8.80;;;;;;;;;;4994085;28;20033;-59
2022/11/06 03:25:15;;;;;;;9.80;9.10;;;;;;;;;;4992084;28;20041;-59
2022/11/06 03:27:52;;;;;;;8.85;8.25;;;;;;;;;;4992256;28;20030;-60
2022/11/06 03:30:18;;;;;;;8.90;8.30;;;;;;;;;;4996085;28;20030;-59
2022/11/06 03:32:55;;;;;;;8.70;8.10;;;;;;;;;;4994113;28;20581;-59
2022/11/06 03:35:25;;;;;;;8.57;8.00;;;;;;;;;;4992619;28;20049;-60
2022/11/06 03:38:00;;;;;;;10.52;9.68;;;;;;;;;;4990248;28;20069;-59
2022/11/06 03:40:30;;;;;;;8.90;8.30;;;;;;;;;;4992716;28;20465;-59
2022/11/06 03:43:00;;;;;;;10.30;9.60;;;;;;;;;;4990966;28;20482;-59
2022/11/06 03:45:28;;;;;;;9.00;8.40;;;;;;;;;;4992373;28;20037;-59
2022/11/06 03:48:08;;;;;;;10.13;9.32;;;;;;;;;;4992671;28;20034;-59
2022/11/06 03:50:39;;;;;;;9.73;9.05;;;;;;;;;;4988658;28;20128;-59
2022/11/06 03:53:16;;;;;;;9.45;8.73;;;;;;;;;;4994809;28;20049;-59
2022/11/06 03:55:48;;;;;;;10.43;9.40;;;;;;;;;;4993440;28;20045;-59
2022/11/06 03:58:19;;;;;;;11.60;10.63;;;;;;;;;;4990732;28;20491;-59
2022/11/06 04:00:45;;;;;;;10.48;9.63;;;;;;;;;;4994502;28;20033;-59
2022/11/06 04:03:19;;;;;;;10.40;9.50;;;;;;;;;;4995140;28;20337;-59
2022/11/06 04:05:50;;;;;;;10.80;9.93;;;;;;;;;;4992834;28;20112;-59
2022/11/06 04:13:57;;;;;;;9.88;9.18;;;;;;;;;;4988525;28;20033;-59
2022/11/06 04:16:38;;;;;;;9.05;8.45;;;;;;;;;;4993108;28;20049;-59
2022/11/06 04:19:18;;;;;;;10.15;9.45;;;;;;;;;;4992996;28;20526;-60
2022/11/06 04:22:08;;;;;;;9.65;8.98;;;;;;;;;;4994735;28;20451;-59
2022/11/06 04:27:58;;;;;;;10.02;9.35;;;;;;;;;;4994325;28;20471;-59
2022/11/06 04:30:24;;;;;;;9.95;9.25;;;;;;;;;;4990765;28;20030;-59
2022/11/06 04:33:03;;;;;;;9.60;9.00;;;;;;;;;;4995648;28;20045;-60
2022/11/06 04:35:41;;;;;;;9.98;9.23;;;;;;;;;;4991949;28;20448;-60
2022/11/06 04:38:44;;;;;;;10.65;9.90;;;;;;;;;;4995537;28;20542;-60
2022/11/06 04:41:33;;;;;;;9.45;8.85;;;;;;;;;;4992302;28;20046;-60
2022/11/06 04:44:04;;;;;;;11.70;10.65;;;;;;;;;;4998657;28;20042;-60
2022/11/06 04:46:34;;;;;;;8.80;8.20;;;;;;;;;;4995774;28;20455;-60
2022/11/06 04:49:02;;;;;;;9.77;8.90;;;;;;;;;;4998594;28;20096;-60
2022/11/06 04:51:37;;;;;;;8.98;8.38;;;;;;;;;;4995553;28;20112;-60
2022/11/06 04:54:05;;;;;;;9.07;8.45;;;;;;;;;;4996512;28;20026;-60
2022/11/06 04:56:34;;;;;;;10.50;9.80;;;;;;;;;;4997822;28;20156;-60
2022/11/06 04:58:59;;;;;;;9.30;8.70;;;;;;;;;;4995622;28;20033;-60
2022/11/06 05:01:25;;;;;;;9.60;8.90;;;;;;;;;;4995739;28;20185;-60
2022/11/06 05:03:51;;;;;;;10.25;9.55;;;;;;;;;;4996667;28;20050;-60
2022/11/06 05:06:16;;;;;;;9.55;8.85;;;;;;;;;;4995121;28;20037;-60
2022/11/06 05:08:42;;;;;;;11.43;10.55;;;;;;;;;;4996035;28;20066;-60
2022/11/06 05:11:07;;;;;;;9.45;8.75;;;;;;;;;;4993253;28;20121;-61
2022/11/06 05:13:32;;;;;;;10.30;9.48;;;;;;;;;;4995496;28;20061;-60
2022/11/06 05:15:59;;;;;;;10.65;9.95;;;;;;;;;;4994470;28;20263;-60
2022/11/06 05:18:25;;;;;;;10.65;9.80;;;;;;;;;;4995871;28;20421;-60
2022/11/06 05:23:37;;;;;;;9.00;8.40;;;;;;;;;;4995175;28;20037;-60
2022/11/06 05:26:03;;;;;;;8.77;8.18;;;;;;;;;;4995581;28;20034;-60
2022/11/06 05:28:29;;;;;;;9.50;8.82;;;;;;;;;;4996352;28;20038;-60
2022/11/06 05:30:54;;;;;;;9.07;8.38;;;;;;;;;;4992868;28;20073;-60
2022/11/06 05:33:20;;;;;;;9.90;9.20;;;;;;;;;;4997262;28;20072;-60
2022/11/06 05:35:45;;;;;;;8.60;8.00;;;;;;;;;;4993529;28;20073;-60
2022/11/06 05:38:11;;;;;;;9.30;8.70;;;;;;;;;;4995940;28;20085;-60
2022/11/06 05:40:36;;;;;;;8.23;7.63;;;;;;;;;;4993511;28;20046;-60
2022/11/06 05:43:02;;;;;;;10.40;9.70;;;;;;;;;;4991892;28;20068;-60
2022/11/06 05:45:27;;;;;;;8.93;8.23;;;;;;;;;;4994070;28;20358;-60
2022/11/06 05:47:52;;;;;;;8.63;8.02;;;;;;;;;;4993075;28;20034;-60
2022/11/06 05:50:18;;;;;;;8.32;7.72;;;;;;;;;;4994139;28;20052;-60
2022/11/06 05:52:43;;;;;;;7.38;6.88;;;;;;;;;;4992282;28;20032;-60
2022/11/06 05:55:09;;;;;;;8.25;7.65;;;;;;;;;;4992472;28;20033;-60
2022/11/06 05:57:34;;;;;;;8.80;8.20;;;;;;;;;;4995356;28;20034;-59
2022/11/06 06:00:00;;;;;;;8.25;7.72;;;;;;;;;;4992511;28;20034;-59
2022/11/06 06:02:25;;;;;;;8.25;7.65;;;;;;;;;;4987883;28;20502;-59
2022/11/06 06:04:50;;;;;;;9.98;9.27;;;;;;;;;;4994033;28;20034;-59
2022/11/06 06:07:16;;;;;;;8.68;8.07;;;;;;;;;;4994780;28;20359;-59
2022/11/06 06:09:41;;;;;;;8.70;7.97;;;;;;;;;;4993606;28;20057;-59
2022/11/06 06:12:09;;;;;;;7.80;7.30;;;;;;;;;;4993003;28;20036;-59
2022/11/06 06:14:35;;;;;;;8.82;8.20;;;;;;;;;;4995609;28;20116;-59
2022/11/06 06:17:00;;;;;;;8.45;7.85;;;;;;;;;;4996403;28;20440;-59
2022/11/06 06:19:25;;;;;;;10.68;9.90;;;;;;;;;;4993874;28;20030;-59
2022/11/06 06:21:51;;;;;;;9.35;8.65;;;;;;;;;;4991717;28;20305;-59
2022/11/06 06:24:16;;;;;;;9.25;8.55;;;;;;;;;;4995500;28;20644;-59
2022/11/06 06:26:41;;;;;;;9.63;8.93;;;;;;;;;;4991042;28;21279;-59
2022/11/06 06:29:07;;;;;;;8.85;8.25;;;;;;;;;;4992689;28;20522;-59
2022/11/06 06:31:32;;;;;;;8.82;8.18;;;;;;;;;;4990253;28;20030;-59
2022/11/06 06:33:58;;;;;;;8.93;8.32;;;;;;;;;;4990674;28;20417;-59
2022/11/06 06:36:23;;;;;;;8.85;8.25;;;;;;;;;;4991878;28;20049;-58
2022/11/06 06:38:48;;;;;;;12.38;11.25;;;;;;;;;;4992633;28;20117;-58
2022/11/06 06:41:14;;;;;;;10.50;9.70;;;;;;;;;;4989573;28;20034;-59
2022/11/06 06:43:39;;;;;;;8.65;8.05;;;;;;;;;;4991829;28;20034;-59
2022/11/06 06:46:05;;;;;;;9.48;8.80;;;;;;;;;;4994251;28;20065;-59
2022/11/06 06:48:31;;;;;;;11.15;10.35;;;;;;;;;;4992551;28;20118;-58
2022/11/06 06:50:58;;;;;;;8.88;8.25;;;;;;;;;;4992209;28;20026;-59
2022/11/06 06:53:23;;;;;;;10.13;9.43;;;;;;;;;;4992617;28;20646;-58
2022/11/06 06:55:49;;;;;;;8.73;8.13;;;;;;;;;;4993362;28;20034;-58
2022/11/06 06:58:14;;;;;;;8.40;7.80;;;;;;;;;;4992558;28;20037;-60
2022/11/06 07:00:40;;;;;;;9.75;8.95;;;;;;;;;;4992316;28;20103;-59
2022/11/06 07:03:05;;;;;;;9.43;8.65;;;;;;;;;;4993750;28;20048;-59
2022/11/06 07:05:31;;;;;;;9.95;9.25;;;;;;;;;;4989250;28;20566;-59
2022/11/06 07:07:56;;;;;;;8.80;8.20;;;;;;;;;;4990704;28;20034;-59
2022/11/06 07:10:21;;;;;;;8.13;7.60;;;;;;;;;;4991827;28;20025;-59
2022/11/06 07:12:47;;;;;;;7.95;7.45;;;;;;;;;;4993342;28;20129;-59
2022/11/06 07:15:12;;;;;;;8.20;7.70;;;;;;;;;;4994489;28;20038;-60
2022/11/06 07:17:38;;;;;;;9.00;8.40;;;;;;;;;;4991245;28;20588;-60
2022/11/06 07:20:04;;;;;;;7.93;7.43;;;;;;;;;;4987715;28;20038;-60
2022/11/06 07:22:29;;;;;;;8.43;7.85;;;;;;;;;;4989692;28;20142;-59
2022/11/06 07:24:54;;;;;;;7.47;6.97;;;;;;;;;;4991218;28;20526;-60
2022/11/06 07:27:20;;;;;;;8.52;7.93;;;;;;;;;;4992804;28;20034;-59
2022/11/06 07:29:45;;;;;;;8.73;8.05;;;;;;;;;;4992244;28;20088;-59
2022/11/06 07:32:11;;;;;;;8.77;7.90;;;;;;;;;;4991601;28;20121;-59
2022/11/06 07:34:38;;;;;;;8.35;7.50;;;;;;;;;;4994357;28;20092;-59
2022/11/06 07:37:05;;;;;;;8.32;7.72;;;;;;;;;;4991841;28;20618;-59
2022/11/06 07:39:30;;;;;;;10.18;9.50;;;;;;;;;;4988836;28;20046;-59
2022/11/06 07:41:56;;;;;;;9.55;8.80;;;;;;;;;;4990945;28;20030;-59
2022/11/06 07:44:21;;;;;;;9.77;9.07;;;;;;;;;;4992296;28;20045;-59
2022/11/06 07:46:47;;;;;;;12.70;11.77;;;;;;;;;;4999478;28;20503;-59
2022/11/06 07:49:12;;;;;;;11.00;10.20;;;;;;;;;;4992564;28;20128;-59
2022/11/06 07:51:38;;;;;;;10.30;9.60;;;;;;;;;;4990356;28;20053;-59
2022/11/06 07:54:03;;;;;;;11.07;10.30;;;;;;;;;;4996352;28;20033;-59
2022/11/06 07:56:29;;;;;;;10.32;9.63;;;;;;;;;;4991726;28;20621;-59
2022/11/06 07:58:54;;;;;;;10.02;9.32;;;;;;;;;;4991901;28;20089;-58
2022/11/06 08:01:19;;;;;;;10.80;10.10;;;;;;;;;;4992499;28;20034;-59
2022/11/06 08:03:45;;;;;;;9.15;8.55;;;;;;;;;;4991907;28;20357;-59
2022/11/06 08:06:10;;;;;;;10.23;9.52;;;;;;;;;;4993251;28;20034;-59
2022/11/06 08:08:36;;;;;;;10.15;9.45;;;;;;;;;;4992341;28;20660;-59
2022/11/06 08:11:06;;;;;;;10.48;9.70;;;;;;;;;;4994045;28;20037;-59
2022/11/06 08:13:35;;;;;;;10.30;9.60;;;;;;;;;;4995917;28;20034;-60
2022/11/06 08:16:09;;;;;;;10.05;9.35;;;;;;;;;;4995456;28;20042;-59
2022/11/06 08:18:35;;;;;;;10.25;9.57;;;;;;;;;;4993858;28;20018;-59
2022/11/06 08:21:01;;;;;;;10.88;10.18;;;;;;;;;;4995240;28;20126;-59
2022/11/06 08:23:27;;;;;;;9.32;8.73;;;;;;;;;;4998845;28;20534;-60
2022/11/06 08:25:57;;;;;;;10.30;9.60;;;;;;;;;;4994974;28;20034;-59
2022/11/06 08:28:24;;;;;;;10.27;9.68;;;;;;;;;;4995003;28;20483;-59
2022/11/06 08:30:50;;;;;;;11.18;10.35;;;;;;;;;;4997798;28;20109;-59
2022/11/06 08:33:16;;;;;;;10.48;9.57;;;;;;;;;;5002916;28;20030;-59
2022/11/06 08:35:41;;;;;;;11.13;10.32;;;;;;;;;;4998481;28;20131;-59
2022/11/06 08:38:06;;;;;;;10.23;9.52;;;;;;;;;;4997325;28;20034;-60
2022/11/06 08:40:32;;;;;;;11.30;10.55;;;;;;;;;;4991664;28;20105;-59
2022/11/06 08:43:03;;;;;;;11.05;10.32;;;;;;;;;;4996856;28;20101;-60
2022/11/06 08:45:29;;;;;;;10.77;9.98;;;;;;;;;;4994127;28;20048;-59
2022/11/06 08:48:00;;;;;;;11.75;10.88;;;;;;;;;;4987048;28;20026;-60
2022/11/06 08:50:25;;;;;;;10.80;10.10;;;;;;;;;;4994384;28;20156;-60
2022/11/06 08:52:51;;;;;;;10.45;9.75;;;;;;;;;;4996239;28;20137;-60
2022/11/06 08:55:16;;;;;;;11.57;10.73;;;;;;;;;;4991831;28;20070;-60
2022/11/06 08:57:41;;;;;;;10.73;10.02;;;;;;;;;;4995698;28;20643;-60
2022/11/06 09:00:07;;;;;;;12.13;11.23;;;;;;;;;;4993150;28;20041;-60
2022/11/06 09:02:33;;;;;;;11.38;10.68;;;;;;;;;;4991511;28;20464;-59
2022/11/06 09:04:58;;;;;;;12.02;11.13;;;;;;;;;;4994950;28;20038;-59
2022/11/06 09:07:23;;;;;;;13.52;12.45;;;;;;;;;;4994188;28;20030;-60
2022/11/06 09:09:49;;;;;;;9.55;8.95;;;;;;;;;;4991855;28;20042;-60
2022/11/06 09:12:14;;;;;;;11.95;11.05;;;;;;;;;;4993586;28;20068;-60
2022/11/06 09:14:40;;;;;;;17.25;11.30;;;;;;;;;;4992299;28;20504;-60
2022/11/06 09:17:05;;;;;;;11.65;10.85;;;;;;;;;;4993553;28;20041;-60
2022/11/06 09:19:30;;;;;;;11.63;10.82;;;;;;;;;;4993483;28;21031;-60
2022/11/06 09:21:56;;;;;;;12.40;11.43;;;;;;;;;;4999490;28;20105;-60
2022/11/06 09:24:21;;;;;;;11.20;10.50;;;;;;;;;;4995302;28;20049;-60
2022/11/06 09:26:46;;;;;;;12.27;11.48;;;;;;;;;;4997608;28;20034;-61
2022/11/06 09:29:12;;;;;;;10.60;9.90;;;;;;;;;;4995334;28;20092;-60
2022/11/06 09:31:37;;;;;;;12.63;11.65;;;;;;;;;;4994681;28;20077;-60
2022/11/06 09:34:03;;;;;;;11.98;11.18;;;;;;;;;;4991386;28;20038;-60
2022/11/06 09:36:28;;;;;;;11.27;10.38;;;;;;;;;;4993696;28;20455;-60
2022/11/06 09:38:53;;;;;;;11.00;10.30;;;;;;;;;;4993443;28;20198;-60
2022/11/06 09:41:35;;;;;;;11.73;10.82;;;;;;;;;;4994846;28;20057;-60
2022/11/06 09:44:19;;;;;;;10.98;10.27;;;;;;;;;;4995099;28;20283;-60
2022/11/06 09:46:46;;;;;;;13.23;12.13;;;;;;;;;;4995940;28;20061;-60
2022/11/06 09:49:27;;;;;;;12.02;11.23;;;;;;;;;;4995443;28;20034;-60
2022/11/06 09:52:23;;;;;;;10.75;9.88;;;;;;;;;;4991540;28;20042;-60
2022/11/06 09:55:03;;;;;;;9.50;8.90;;;;;;;;;;4995736;28;20064;-60
2022/11/06 09:58:04;;;;;;;10.90;10.10;;;;;;;;;;4993706;28;20093;-60
2022/11/06 10:00:29;;;;;;;10.70;9.90;;;;;;;;;;4993485;28;20041;-61
2022/11/06 10:03:17;;;;;;;9.38;8.77;;;;;;;;;;4993575;28;20046;-61
2022/11/06 10:05:44;;;;;;;10.30;9.50;;;;;;;;;;4995748;28;20034;-61
2022/11/06 10:08:18;;;;;;;11.18;10.35;;;;;;;;;;4994501;28;20121;-61
2022/11/06 10:11:01;;;;;;;10.60;9.65;;;;;;;;;;4993707;28;20037;-62
2022/11/06 10:13:48;;;;;;;9.52;8.93;;;;;;;;;;4993466;28;20033;-60
2022/11/06 10:16:28;;;;;;;9.75;9.13;;;;;;;;;;4993039;28;20053;-61
2022/11/06 10:18:59;;;;;;;9.48;8.88;;;;;;;;;;4995575;28;20091;-61
2022/11/06 10:21:45;;;;;;;9.98;9.38;;;;;;;;;;4992281;28;20064;-61
2022/11/06 10:24:20;;;;;;;9.32;8.73;;;;;;;;;;4992146;28;20042;-61
2022/11/06 10:26:56;;;;;;;8.88;8.27;;;;;;;;;;5001454;28;20504;-61
2022/11/06 10:29:42;;;;;;;10.18;9.48;;;;;;;;;;4992714;28;20044;-61
2022/11/06 10:32:38;;;;;;;9.75;9.05;;;;;;;;;;4993206;28;20022;-61
2022/11/06 10:35:16;;;;;;;10.20;9.50;;;;;;;;;;4991951;28;20073;-61
2022/11/06 10:37:49;;;;;;;10.18;9.48;;;;;;;;;;4993883;28;20030;-61
2022/11/06 10:40:23;;;;;;;9.35;8.75;;;;;;;;;;4992837;28;20061;-61
2022/11/06 10:42:56;;;;;;;8.68;8.07;;;;;;;;;;4990414;28;20422;-60
2022/11/06 10:45:22;;;;;;;8.70;8.10;;;;;;;;;;4991319;28;20498;-60
2022/11/06 10:47:55;;;;;;;9.48;8.88;;;;;;;;;;4993037;28;20242;-60
2022/11/06 10:50:27;;;;;;;9.32;8.73;;;;;;;;;;4993711;28;20029;-61
2022/11/06 10:53:19;;;;;;;9.98;9.27;;;;;;;;;;4991196;28;20064;-61
2022/11/06 10:56:18;;;;;;;9.57;8.93;;;;;;;;;;5087295;27;20719;-62
2022/11/06 10:58:43;;;;;;;9.95;9.25;;;;;;;;;;5087510;28;20135;-62
2022/11/06 11:01:13;;;;;;;10.60;9.70;;;;;;;;;;5083695;28;20090;-61
2022/11/06 11:03:44;;;;;;;10.15;9.45;;;;;;;;;;5082255;28;20357;-62
2022/11/06 11:06:09;;;;;;;9.65;9.02;;;;;;;;;;5085279;28;20056;-62
2022/11/06 11:08:43;;;;;;;9.45;8.85;;;;;;;;;;5085658;28;20508;-62
2022/11/06 11:11:12;;;;;;;9.18;8.57;;;;;;;;;;5086087;28;20028;-62
2022/11/06 11:13:38;;;;;;;9.20;8.60;;;;;;;;;;5084940;28;20553;-62
2022/11/06 11:16:13;;;;;;;11.45;10.55;;;;;;;;;;5087592;28;20041;-62
2022/11/06 11:18:38;;;;;;;10.57;9.88;;;;;;;;;;5087759;28;20063;-62
2022/11/06 11:21:17;;;;;;;10.48;9.77;;;;;;;;;;5085824;28;20079;-62
2022/11/06 11:23:43;;;;;;;10.88;10.18;;;;;;;;;;5084593;28;21783;-62
2022/11/06 11:26:23;;;;;;;12.63;11.93;;;;;;;;;;5087354;28;20089;-62
2022/11/06 11:28:54;;;;;;;11.95;11.15;;;;;;;;;;5085005;28;20480;-63
2022/11/06 11:31:27;;;;;;;12.50;11.75;;;;;;;;;;5081511;28;20107;-62
2022/11/06 11:33:55;;;;;;;10.18;9.50;;;;;;;;;;5087783;28;20341;-62
2022/11/06 11:36:22;;;;;;;10.32;9.65;;;;;;;;;;5083437;28;20028;-62
2022/11/06 11:38:47;;;;;;;11.52;10.73;;;;;;;;;;5086490;28;20124;-62
2022/11/06 11:41:21;;;;;;;11.43;10.73;;;;;;;;;;5086438;28;20064;-62
2022/11/06 11:44:16;;;;;;;12.02;10.90;;;;;;;;;;5085543;28;20047;-61
2022/11/06 11:46:52;;;;;;;11.70;11.00;;;;;;;;;;5082444;28;20312;-63
2022/11/06 11:49:33;;;;;;;11.93;11.13;;;;;;;;;;5083217;28;20036;-62
2022/11/06 11:52:03;;;;;;;15.05;14.15;;;;;;;;;;5081666;28;20403;-63
2022/11/06 11:54:32;;;;;;;14.98;14.07;;;;;;;;;;5084754;28;20031;-62
2022/11/06 11:57:07;;;;;;;15.55;14.65;;;;;;;;;;5084013;28;20098;-62
2022/11/06 11:59:42;;;;;;;17.77;16.77;;;;;;;;;;5083160;28;20029;-63
2022/11/06 12:02:16;;;;;;;15.48;14.57;;;;;;;;;;5082796;28;20031;-61
2022/11/06 12:04:45;;;;;;;11.30;10.60;;;;;;;;;;5084270;28;20147;-61
2022/11/06 12:07:25;;;;;;;14.35;13.45;;;;;;;;;;5069631;28;20032;-62
2022/11/06 12:09:50;;;;;;;13.57;12.77;;;;;;;;;;5067142;28;20094;-62
2022/11/06 12:12:31;;;;;;;11.57;10.82;;;;;;;;;;5069471;28;20125;-61
2022/11/06 12:15:09;;;;;;;9.68;9.02;;;;;;;;;;5066719;28;20412;-61
2022/11/06 12:17:38;;;;;;;10.35;9.68;;;;;;;;;;5070566;28;20437;-61
2022/11/06 12:20:13;;;;;;;10.02;9.43;;;;;;;;;;5068030;28;20033;-62
2022/11/06 12:22:43;;;;;;;12.48;11.57;;;;;;;;;;5067101;28;20031;-61
2022/11/06 12:25:26;;;;;;;11.00;10.30;;;;;;;;;;5070836;28;20035;-61
2022/11/06 12:27:58;;;;;;;12.00;10.95;;;;;;;;;;5069923;28;20039;-59
2022/11/06 12:30:24;;;;;;;15.07;14.18;;;;;;;;;;5068596;28;20028;-59
2022/11/06 12:32:58;;;;;;;12.43;11.70;;;;;;;;;;5071885;28;20039;-59
2022/11/06 12:35:41;;;;;;;13.45;12.65;;;;;;;;;;5065310;28;20422;-60
2022/11/06 12:38:19;;;;;;;14.90;14.02;;;;;;;;;;5068959;28;20035;-58
2022/11/06 12:41:10;;;;;;;11.95;11.25;;;;;;;;;;5065922;28;20572;-59
2022/11/06 12:43:41;;;;;;;11.65;10.95;;;;;;;;;;5060769;28;20063;-60
2022/11/06 12:46:23;;;;;;;13.50;12.32;;;;;;;;;;5069801;28;20025;-59
2022/11/06 12:49:17;;;;;;;14.23;13.32;;;;;;;;;;5069117;28;20339;-59
2022/11/06 12:52:12;;;;;;;15.23;14.32;;;;;;;;;;5067950;28;20036;-59
2022/11/06 12:55:11;;;;;;;16.25;15.25;;;;;;;;;;5069257;28;20114;-59
2022/11/06 12:57:36;;;;;;;17.63;16.60;;;;;;;;;;5067894;28;20086;-59
2022/11/06 13:00:23;;;;;;;19.02;17.73;;;;;;;;;;5069807;28;20457;-59
2022/11/06 13:03:13;;;;;;;17.73;16.73;;;;;;;;;;5070118;28;20052;-60
2022/11/06 13:05:48;;;;;;;16.80;15.82;;;;;;;;;;5069932;28;20028;-59
2022/11/06 13:08:33;;;;;;;17.20;16.20;;;;;;;;;;5064559;28;20378;-59
2022/11/06 13:10:58;;;;;;;17.58;16.58;;;;;;;;;;5068621;28;20035;-59
2022/11/06 13:13:45;;;;;;;20.65;19.45;;;;;;;;;;5064450;28;20413;-60
2022/11/06 13:16:37;;;;;;;18.63;17.63;;;;;;;;;;5070329;28;20031;-60
2022/11/06 13:19:11;;;;;;;18.95;17.90;;;;;;;;;;5067461;28;20021;-60
2022/11/06 13:21:55;;;;;;;17.45;16.45;;;;;;;;;;5068019;28;20411;-60
2022/11/06 13:24:42;;;;;;;18.48;17.48;;;;;;;;;;5068190;28;20028;-60
2022/11/06 13:27:21;;;;;;;18.83;17.73;;;;;;;;;;5064357;28;20115;-60
2022/11/06 13:29:47;;;;;;;15.57;14.68;;;;;;;;;;5069206;28;20020;-60
2022/11/06 13:32:17;;;;;;;20.38;19.25;;;;;;;;;;5067439;28;20119;-59
2022/11/06 13:34:48;;;;;;;20.10;19.00;;;;;;;;;;5067084;28;20029;-60
2022/11/06 13:37:21;;;;;;;19.45;18.25;;;;;;;;;;5071316;28;20043;-60
2022/11/06 13:39:53;;;;;;;19.58;18.48;;;;;;;;;;5068135;28;20028;-60
2022/11/06 13:42:29;;;;;;;18.23;17.23;;;;;;;;;;5068599;28;20028;-60
2022/11/06 13:44:56;;;;;;;18.58;17.55;;;;;;;;;;5066014;28;20052;-60
2022/11/06 13:47:34;;;;;;;18.58;17.15;;;;;;;;;;5069846;28;20089;-60
2022/11/06 13:50:18;;;;;;;18.35;17.25;;;;;;;;;;5069291;28;20126;-60
2022/11/06 13:52:56;;;;;;;17.15;16.15;;;;;;;;;;5066904;28;20033;-59
2022/11/06 13:55:40;;;;;;;18.13;17.10;;;;;;;;;;5066175;28;20202;-59
2022/11/06 13:58:33;;;;;;;16.45;15.55;;;;;;;;;;5066923;28;20036;-60
2022/11/06 14:01:13;;;;;;;17.52;16.52;;;;;;;;;;5062815;28;20068;-60
2022/11/06 14:03:57;;;;;;;18.02;16.98;;;;;;;;;;5065764;28;20077;-59
2022/11/06 14:06:26;;;;;;;14.05;13.25;;;;;;;;;;5068944;28;20156;-60
2022/11/06 14:08:55;;;;;;;13.48;12.68;;;;;;;;;;5067502;28;20120;-60
2022/11/06 14:11:33;;;;;;;13.77;12.98;;;;;;;;;;5067270;28;20061;-60
2022/11/06 14:14:02;;;;;;;16.88;15.90;;;;;;;;;;5065384;28;20237;-60
2022/11/06 14:16:29;;;;;;;15.95;15.05;;;;;;;;;;5066084;28;20043;-63
2022/11/06 14:18:57;;;;;;;14.18;13.38;;;;;;;;;;5069440;28;20516;-62
2022/11/06 14:21:25;;;;;;;15.35;14.45;;;;;;;;;;5068126;28;20567;-63
2022/11/06 14:24:04;;;;;;;17.02;16.05;;;;;;;;;;5067812;28;20040;-62
2022/11/06 14:26:47;;;;;;;13.95;13.15;;;;;;;;;;5067375;28;20095;-62
2022/11/06 14:29:25;;;;;;;13.75;12.95;;;;;;;;;;5061311;28;20028;-62
2022/11/06 14:32:00;;;;;;;11.10;10.40;;;;;;;;;;5067197;28;20035;-61
2022/11/06 14:34:31;;;;;;;11.88;11.18;;;;;;;;;;5066570;28;20031;-61
2022/11/06 14:36:56;;;;;;;11.65;10.95;;;;;;;;;;5065894;28;20052;-61
2022/11/06 14:39:49;;;;;;;11.13;10.43;;;;;;;;;;5069834;28;20429;-62
2022/11/06 14:42:18;;;;;;;11.40;10.70;;;;;;;;;;5067841;28;20103;-62
2022/11/06 14:44:46;;;;;;;12.13;11.43;;;;;;;;;;5033440;28;20080;-62
2022/11/06 14:47:48;;;;;;;11.98;11.27;;;;;;;;;;5018400;28;20482;-62
2022/11/06 14:50:19;;;;;;;9.90;9.25;;;;;;;;;;5016706;28;20045;-62
2022/11/06 14:52:49;;;;;;;10.90;10.20;;;;;;;;;;5014396;28;20035;-61
2022/11/06 14:55:39;;;;;;;12.02;11.30;;;;;;;;;;5014437;28;20034;-62
2022/11/06 14:58:21;;;;;;;10.30;9.60;;;;;;;;;;5015241;28;20037;-62
2022/11/06 15:01:09;;;;;;;10.15;9.45;;;;;;;;;;5015403;28;20456;-62
2022/11/06 15:03:57;;;;;;;9.90;9.30;;;;;;;;;;5014853;28;20523;-61
2022/11/06 15:06:32;;;;;;;10.00;9.40;;;;;;;;;;5015786;28;20046;-62
2022/11/06 15:09:03;;;;;;;10.25;9.50;;;;;;;;;;5018013;28;20045;-62
2022/11/06 15:11:29;;;;;;;10.18;9.57;;;;;;;;;;5020487;28;20121;-61
2022/11/06 15:13:55;;;;;;;10.00;9.35;;;;;;;;;;5017162;28;20144;-62